<?xml version="1.0" encoding="UTF-8" standalone="no" ?>
<gpx xmlns="http://www.topografix.com/GPX/1/1" xmlns:xsi="http://www.w3.org/2001/XMLSchema-instance" xsi:schemaLocation="http://www.topografix.com/GPX/1/1 http://www.topografix.com/GPX/1/1/gpx.xsd" version="1.1" creator="VisuGPX - https://www.visugpx.com">
  <metadata>
    <name>Garmin</name>
    <desc><![CDATA[GPX de GARMIN]]></desc>
  </metadata>
  <trk>
    <name><![CDATA[Villars-Ste-Croix Course à pied]]></name>
    <trkseg>
      <trkpt lat="46.56421" lon="6.5496">
        <ele>486.79998779297</ele>
        <time>2015-09-04T10:06:17.000Z</time>
      </trkpt>
      <trkpt lat="46.56421" lon="6.54952">
        <ele>486.79998779297</ele>
        <time>2015-09-04T10:06:20.000Z</time>
      </trkpt>
      <trkpt lat="46.5642" lon="6.54944">
        <ele>485.79998779297</ele>
        <time>2015-09-04T10:06:22.000Z</time>
      </trkpt>
      <trkpt lat="46.56419" lon="6.54924">
        <ele>485.60000610352</ele>
        <time>2015-09-04T10:06:27.000Z</time>
      </trkpt>
      <trkpt lat="46.56398" lon="6.54921">
        <ele>485.60000610352</ele>
        <time>2015-09-04T10:06:33.000Z</time>
      </trkpt>
      <trkpt lat="46.56381" lon="6.54914">
        <ele>485.60000610352</ele>
        <time>2015-09-04T10:06:39.000Z</time>
      </trkpt>
      <trkpt lat="46.56379" lon="6.54884">
        <ele>485.60000610352</ele>
        <time>2015-09-04T10:06:45.000Z</time>
      </trkpt>
      <trkpt lat="46.56378" lon="6.54866">
        <ele>485.60000610352</ele>
        <time>2015-09-04T10:06:49.000Z</time>
      </trkpt>
      <trkpt lat="46.56367" lon="6.54855">
        <ele>485.39999389648</ele>
        <time>2015-09-04T10:06:53.000Z</time>
      </trkpt>
      <trkpt lat="46.56352" lon="6.54863">
        <ele>485</ele>
        <time>2015-09-04T10:06:58.000Z</time>
      </trkpt>
      <trkpt lat="46.56337" lon="6.5488">
        <ele>484.60000610352</ele>
        <time>2015-09-04T10:07:04.000Z</time>
      </trkpt>
      <trkpt lat="46.56319" lon="6.54891">
        <ele>484.39999389648</ele>
        <time>2015-09-04T10:07:10.000Z</time>
      </trkpt>
      <trkpt lat="46.56299" lon="6.54895">
        <ele>484.39999389648</ele>
        <time>2015-09-04T10:07:16.000Z</time>
      </trkpt>
      <trkpt lat="46.5628" lon="6.54899">
        <ele>484.39999389648</ele>
        <time>2015-09-04T10:07:22.000Z</time>
      </trkpt>
      <trkpt lat="46.5626" lon="6.54903">
        <ele>484.20001220703</ele>
        <time>2015-09-04T10:07:28.000Z</time>
      </trkpt>
      <trkpt lat="46.56257" lon="6.54904">
        <ele>484.20001220703</ele>
        <time>2015-09-04T10:07:29.000Z</time>
      </trkpt>
      <trkpt lat="46.56238" lon="6.54908">
        <ele>483.60000610352</ele>
        <time>2015-09-04T10:07:35.000Z</time>
      </trkpt>
      <trkpt lat="46.56228" lon="6.54911">
        <ele>483.39999389648</ele>
        <time>2015-09-04T10:07:38.000Z</time>
      </trkpt>
      <trkpt lat="46.56208" lon="6.54916">
        <ele>482.60000610352</ele>
        <time>2015-09-04T10:07:44.000Z</time>
      </trkpt>
      <trkpt lat="46.56205" lon="6.54917">
        <ele>482.20001220703</ele>
        <time>2015-09-04T10:07:45.000Z</time>
      </trkpt>
      <trkpt lat="46.56185" lon="6.54919">
        <ele>481.39999389648</ele>
        <time>2015-09-04T10:07:52.000Z</time>
      </trkpt>
      <trkpt lat="46.56182" lon="6.54919">
        <ele>481.20001220703</ele>
        <time>2015-09-04T10:07:53.000Z</time>
      </trkpt>
      <trkpt lat="46.56167" lon="6.54919">
        <ele>480.39999389648</ele>
        <time>2015-09-04T10:07:58.000Z</time>
      </trkpt>
      <trkpt lat="46.56148" lon="6.54918">
        <ele>479.39999389648</ele>
        <time>2015-09-04T10:08:04.000Z</time>
      </trkpt>
      <trkpt lat="46.56129" lon="6.54916">
        <ele>478.39999389648</ele>
        <time>2015-09-04T10:08:10.000Z</time>
      </trkpt>
      <trkpt lat="46.56108" lon="6.54916">
        <ele>477.20001220703</ele>
        <time>2015-09-04T10:08:17.000Z</time>
      </trkpt>
      <trkpt lat="46.56089" lon="6.54916">
        <ele>476.20001220703</ele>
        <time>2015-09-04T10:08:23.000Z</time>
      </trkpt>
      <trkpt lat="46.56085" lon="6.54915">
        <ele>476.20001220703</ele>
        <time>2015-09-04T10:08:24.000Z</time>
      </trkpt>
      <trkpt lat="46.56072" lon="6.54915">
        <ele>475.60000610352</ele>
        <time>2015-09-04T10:08:28.000Z</time>
      </trkpt>
      <trkpt lat="46.56052" lon="6.54915">
        <ele>474</ele>
        <time>2015-09-04T10:08:34.000Z</time>
      </trkpt>
      <trkpt lat="46.56049" lon="6.54915">
        <ele>473.39999389648</ele>
        <time>2015-09-04T10:08:35.000Z</time>
      </trkpt>
      <trkpt lat="46.56036" lon="6.54915">
        <ele>473</ele>
        <time>2015-09-04T10:08:39.000Z</time>
      </trkpt>
      <trkpt lat="46.56023" lon="6.54915">
        <ele>472.79998779297</ele>
        <time>2015-09-04T10:08:43.000Z</time>
      </trkpt>
      <trkpt lat="46.56004" lon="6.54916">
        <ele>470.39999389648</ele>
        <time>2015-09-04T10:08:49.000Z</time>
      </trkpt>
      <trkpt lat="46.55985" lon="6.54918">
        <ele>470</ele>
        <time>2015-09-04T10:08:55.000Z</time>
      </trkpt>
      <trkpt lat="46.55982" lon="6.54919">
        <ele>470</ele>
        <time>2015-09-04T10:08:56.000Z</time>
      </trkpt>
      <trkpt lat="46.5597" lon="6.54924">
        <ele>469.60000610352</ele>
        <time>2015-09-04T10:09:00.000Z</time>
      </trkpt>
      <trkpt lat="46.55953" lon="6.54939">
        <ele>468.20001220703</ele>
        <time>2015-09-04T10:09:07.000Z</time>
      </trkpt>
      <trkpt lat="46.55948" lon="6.54944">
        <ele>468</ele>
        <time>2015-09-04T10:09:09.000Z</time>
      </trkpt>
      <trkpt lat="46.55929" lon="6.54958">
        <ele>467</ele>
        <time>2015-09-04T10:09:16.000Z</time>
      </trkpt>
      <trkpt lat="46.55911" lon="6.54965">
        <ele>466.20001220703</ele>
        <time>2015-09-04T10:09:22.000Z</time>
      </trkpt>
      <trkpt lat="46.55904" lon="6.54965">
        <ele>465.79998779297</ele>
        <time>2015-09-04T10:09:24.000Z</time>
      </trkpt>
      <trkpt lat="46.55888" lon="6.54959">
        <ele>465.39999389648</ele>
        <time>2015-09-04T10:09:29.000Z</time>
      </trkpt>
      <trkpt lat="46.55869" lon="6.54947">
        <ele>463.79998779297</ele>
        <time>2015-09-04T10:09:35.000Z</time>
      </trkpt>
      <trkpt lat="46.55866" lon="6.54945">
        <ele>463.79998779297</ele>
        <time>2015-09-04T10:09:36.000Z</time>
      </trkpt>
      <trkpt lat="46.55848" lon="6.54932">
        <ele>462.79998779297</ele>
        <time>2015-09-04T10:09:42.000Z</time>
      </trkpt>
      <trkpt lat="46.55834" lon="6.5492">
        <ele>462.60000610352</ele>
        <time>2015-09-04T10:09:47.000Z</time>
      </trkpt>
      <trkpt lat="46.55831" lon="6.54912">
        <ele>462.39999389648</ele>
        <time>2015-09-04T10:09:49.000Z</time>
      </trkpt>
      <trkpt lat="46.55839" lon="6.54884">
        <ele>461.39999389648</ele>
        <time>2015-09-04T10:09:55.000Z</time>
      </trkpt>
      <trkpt lat="46.5584" lon="6.5488">
        <ele>461.39999389648</ele>
        <time>2015-09-04T10:09:56.000Z</time>
      </trkpt>
      <trkpt lat="46.55848" lon="6.54856">
        <ele>460.79998779297</ele>
        <time>2015-09-04T10:10:02.000Z</time>
      </trkpt>
      <trkpt lat="46.55857" lon="6.54831">
        <ele>460.39999389648</ele>
        <time>2015-09-04T10:10:08.000Z</time>
      </trkpt>
      <trkpt lat="46.55866" lon="6.54806">
        <ele>460</ele>
        <time>2015-09-04T10:10:14.000Z</time>
      </trkpt>
      <trkpt lat="46.55869" lon="6.54798">
        <ele>459.79998779297</ele>
        <time>2015-09-04T10:10:16.000Z</time>
      </trkpt>
      <trkpt lat="46.55877" lon="6.54774">
        <ele>459.60000610352</ele>
        <time>2015-09-04T10:10:22.000Z</time>
      </trkpt>
      <trkpt lat="46.55888" lon="6.54749">
        <ele>459.20001220703</ele>
        <time>2015-09-04T10:10:29.000Z</time>
      </trkpt>
      <trkpt lat="46.55894" lon="6.54722">
        <ele>459.20001220703</ele>
        <time>2015-09-04T10:10:36.000Z</time>
      </trkpt>
      <trkpt lat="46.55895" lon="6.54693">
        <ele>459</ele>
        <time>2015-09-04T10:10:43.000Z</time>
      </trkpt>
      <trkpt lat="46.55897" lon="6.5467">
        <ele>459</ele>
        <time>2015-09-04T10:10:48.000Z</time>
      </trkpt>
      <trkpt lat="46.55897" lon="6.54665">
        <ele>458.79998779297</ele>
        <time>2015-09-04T10:10:49.000Z</time>
      </trkpt>
      <trkpt lat="46.55901" lon="6.54643">
        <ele>458.60000610352</ele>
        <time>2015-09-04T10:10:54.000Z</time>
      </trkpt>
      <trkpt lat="46.55908" lon="6.54618">
        <ele>457.60000610352</ele>
        <time>2015-09-04T10:11:00.000Z</time>
      </trkpt>
      <trkpt lat="46.55911" lon="6.54609">
        <ele>457.39999389648</ele>
        <time>2015-09-04T10:11:02.000Z</time>
      </trkpt>
      <trkpt lat="46.55921" lon="6.54586">
        <ele>457</ele>
        <time>2015-09-04T10:11:09.000Z</time>
      </trkpt>
      <trkpt lat="46.55925" lon="6.54574">
        <ele>456.60000610352</ele>
        <time>2015-09-04T10:11:12.000Z</time>
      </trkpt>
      <trkpt lat="46.55928" lon="6.54548">
        <ele>456.60000610352</ele>
        <time>2015-09-04T10:11:18.000Z</time>
      </trkpt>
      <trkpt lat="46.55922" lon="6.54522">
        <ele>456.39999389648</ele>
        <time>2015-09-04T10:11:24.000Z</time>
      </trkpt>
      <trkpt lat="46.55912" lon="6.54498">
        <ele>456.39999389648</ele>
        <time>2015-09-04T10:11:30.000Z</time>
      </trkpt>
      <trkpt lat="46.55901" lon="6.54474">
        <ele>456.39999389648</ele>
        <time>2015-09-04T10:11:36.000Z</time>
      </trkpt>
      <trkpt lat="46.55893" lon="6.54449">
        <ele>456.20001220703</ele>
        <time>2015-09-04T10:11:42.000Z</time>
      </trkpt>
      <trkpt lat="46.55887" lon="6.54423">
        <ele>455.39999389648</ele>
        <time>2015-09-04T10:11:48.000Z</time>
      </trkpt>
      <trkpt lat="46.55886" lon="6.54418">
        <ele>455.20001220703</ele>
        <time>2015-09-04T10:11:49.000Z</time>
      </trkpt>
      <trkpt lat="46.55884" lon="6.5441">
        <ele>455</ele>
        <time>2015-09-04T10:11:51.000Z</time>
      </trkpt>
      <trkpt lat="46.55883" lon="6.54392">
        <ele>454.20001220703</ele>
        <time>2015-09-04T10:11:55.000Z</time>
      </trkpt>
      <trkpt lat="46.55882" lon="6.54366">
        <ele>453.20001220703</ele>
        <time>2015-09-04T10:12:01.000Z</time>
      </trkpt>
      <trkpt lat="46.55891" lon="6.54353">
        <ele>452.60000610352</ele>
        <time>2015-09-04T10:12:05.000Z</time>
      </trkpt>
      <trkpt lat="46.5591" lon="6.54347">
        <ele>450.79998779297</ele>
        <time>2015-09-04T10:12:12.000Z</time>
      </trkpt>
      <trkpt lat="46.55929" lon="6.54337">
        <ele>450.20001220703</ele>
        <time>2015-09-04T10:12:19.000Z</time>
      </trkpt>
      <trkpt lat="46.55934" lon="6.54333">
        <ele>450.39999389648</ele>
        <time>2015-09-04T10:12:21.000Z</time>
      </trkpt>
      <trkpt lat="46.55939" lon="6.54308">
        <ele>449.60000610352</ele>
        <time>2015-09-04T10:12:29.000Z</time>
      </trkpt>
      <trkpt lat="46.55942" lon="6.54282">
        <ele>448.79998779297</ele>
        <time>2015-09-04T10:12:36.000Z</time>
      </trkpt>
      <trkpt lat="46.55947" lon="6.54257">
        <ele>448.39999389648</ele>
        <time>2015-09-04T10:12:43.000Z</time>
      </trkpt>
      <trkpt lat="46.5595" lon="6.54249">
        <ele>448.20001220703</ele>
        <time>2015-09-04T10:12:46.000Z</time>
      </trkpt>
      <trkpt lat="46.55956" lon="6.5424">
        <ele>448</ele>
        <time>2015-09-04T10:12:49.000Z</time>
      </trkpt>
      <trkpt lat="46.55962" lon="6.5423">
        <ele>447.79998779297</ele>
        <time>2015-09-04T10:12:52.000Z</time>
      </trkpt>
      <trkpt lat="46.55976" lon="6.54208">
        <ele>446.60000610352</ele>
        <time>2015-09-04T10:12:59.000Z</time>
      </trkpt>
      <trkpt lat="46.55979" lon="6.54206">
        <ele>446.60000610352</ele>
        <time>2015-09-04T10:13:00.000Z</time>
      </trkpt>
      <trkpt lat="46.55993" lon="6.54187">
        <ele>445.39999389648</ele>
        <time>2015-09-04T10:13:09.000Z</time>
      </trkpt>
      <trkpt lat="46.55994" lon="6.54187">
        <ele>445.39999389648</ele>
        <time>2015-09-04T10:13:10.000Z</time>
      </trkpt>
      <trkpt lat="46.56013" lon="6.54186">
        <ele>444.39999389648</ele>
        <time>2015-09-04T10:13:20.000Z</time>
      </trkpt>
      <trkpt lat="46.56031" lon="6.54178">
        <ele>444</ele>
        <time>2015-09-04T10:13:27.000Z</time>
      </trkpt>
      <trkpt lat="46.5604" lon="6.54174">
        <ele>443.79998779297</ele>
        <time>2015-09-04T10:13:30.000Z</time>
      </trkpt>
      <trkpt lat="46.56056" lon="6.54159">
        <ele>443.60000610352</ele>
        <time>2015-09-04T10:13:35.000Z</time>
      </trkpt>
      <trkpt lat="46.56066" lon="6.5414">
        <ele>443.39999389648</ele>
        <time>2015-09-04T10:13:41.000Z</time>
      </trkpt>
      <trkpt lat="46.56065" lon="6.54119">
        <ele>443.20001220703</ele>
        <time>2015-09-04T10:13:46.000Z</time>
      </trkpt>
      <trkpt lat="46.56065" lon="6.5411">
        <ele>443.20001220703</ele>
        <time>2015-09-04T10:13:49.000Z</time>
      </trkpt>
      <trkpt lat="46.56059" lon="6.54083">
        <ele>443.39999389648</ele>
        <time>2015-09-04T10:13:58.000Z</time>
      </trkpt>
      <trkpt lat="46.5606" lon="6.54081">
        <ele>443.20001220703</ele>
        <time>2015-09-04T10:13:59.000Z</time>
      </trkpt>
      <trkpt lat="46.56068" lon="6.54067">
        <ele>443.60000610352</ele>
        <time>2015-09-04T10:14:04.000Z</time>
      </trkpt>
      <trkpt lat="46.56082" lon="6.54049">
        <ele>443.79998779297</ele>
        <time>2015-09-04T10:14:11.000Z</time>
      </trkpt>
      <trkpt lat="46.56098" lon="6.54035">
        <ele>444.20001220703</ele>
        <time>2015-09-04T10:14:17.000Z</time>
      </trkpt>
      <trkpt lat="46.5611" lon="6.54013">
        <ele>444.60000610352</ele>
        <time>2015-09-04T10:14:23.000Z</time>
      </trkpt>
      <trkpt lat="46.56118" lon="6.53998">
        <ele>445.20001220703</ele>
        <time>2015-09-04T10:14:27.000Z</time>
      </trkpt>
      <trkpt lat="46.56129" lon="6.53978">
        <ele>445.60000610352</ele>
        <time>2015-09-04T10:14:33.000Z</time>
      </trkpt>
      <trkpt lat="46.56131" lon="6.53971">
        <ele>446</ele>
        <time>2015-09-04T10:14:35.000Z</time>
      </trkpt>
      <trkpt lat="46.56136" lon="6.5396">
        <ele>446</ele>
        <time>2015-09-04T10:14:40.000Z</time>
      </trkpt>
      <trkpt lat="46.56139" lon="6.53943">
        <ele>446.39999389648</ele>
        <time>2015-09-04T10:14:46.000Z</time>
      </trkpt>
      <trkpt lat="46.56139" lon="6.53941">
        <ele>446.39999389648</ele>
        <time>2015-09-04T10:14:47.000Z</time>
      </trkpt>
      <trkpt lat="46.56142" lon="6.53935">
        <ele>446.39999389648</ele>
        <time>2015-09-04T10:14:49.000Z</time>
      </trkpt>
      <trkpt lat="46.56144" lon="6.53927">
        <ele>446.60000610352</ele>
        <time>2015-09-04T10:14:51.000Z</time>
      </trkpt>
      <trkpt lat="46.5615" lon="6.5389">
        <ele>447.20001220703</ele>
        <time>2015-09-04T10:14:59.000Z</time>
      </trkpt>
      <trkpt lat="46.56155" lon="6.53863">
        <ele>447.39999389648</ele>
        <time>2015-09-04T10:15:06.000Z</time>
      </trkpt>
      <trkpt lat="46.56154" lon="6.53832">
        <ele>447.79998779297</ele>
        <time>2015-09-04T10:15:12.000Z</time>
      </trkpt>
      <trkpt lat="46.56153" lon="6.53826">
        <ele>447.60000610352</ele>
        <time>2015-09-04T10:15:14.000Z</time>
      </trkpt>
      <trkpt lat="46.56152" lon="6.53816">
        <ele>447.39999389648</ele>
        <time>2015-09-04T10:15:18.000Z</time>
      </trkpt>
      <trkpt lat="46.56147" lon="6.53788">
        <ele>446.79998779297</ele>
        <time>2015-09-04T10:15:24.000Z</time>
      </trkpt>
      <trkpt lat="46.56146" lon="6.53784">
        <ele>446.39999389648</ele>
        <time>2015-09-04T10:15:25.000Z</time>
      </trkpt>
      <trkpt lat="46.56138" lon="6.5376">
        <ele>445.60000610352</ele>
        <time>2015-09-04T10:15:31.000Z</time>
      </trkpt>
      <trkpt lat="46.5613" lon="6.53735">
        <ele>445.39999389648</ele>
        <time>2015-09-04T10:15:37.000Z</time>
      </trkpt>
      <trkpt lat="46.56126" lon="6.53711">
        <ele>445</ele>
        <time>2015-09-04T10:15:43.000Z</time>
      </trkpt>
      <trkpt lat="46.56125" lon="6.53697">
        <ele>444.60000610352</ele>
        <time>2015-09-04T10:15:47.000Z</time>
      </trkpt>
      <trkpt lat="46.56119" lon="6.53673">
        <ele>444.20001220703</ele>
        <time>2015-09-04T10:15:55.000Z</time>
      </trkpt>
      <trkpt lat="46.56106" lon="6.53652">
        <ele>443.39999389648</ele>
        <time>2015-09-04T10:16:01.000Z</time>
      </trkpt>
      <trkpt lat="46.56103" lon="6.53648">
        <ele>443.39999389648</ele>
        <time>2015-09-04T10:16:02.000Z</time>
      </trkpt>
      <trkpt lat="46.56089" lon="6.53633">
        <ele>442</ele>
        <time>2015-09-04T10:16:09.000Z</time>
      </trkpt>
      <trkpt lat="46.56084" lon="6.53624">
        <ele>441.79998779297</ele>
        <time>2015-09-04T10:16:12.000Z</time>
      </trkpt>
      <trkpt lat="46.56082" lon="6.53617">
        <ele>441.39999389648</ele>
        <time>2015-09-04T10:16:14.000Z</time>
      </trkpt>
      <trkpt lat="46.56079" lon="6.53603">
        <ele>440.79998779297</ele>
        <time>2015-09-04T10:16:18.000Z</time>
      </trkpt>
      <trkpt lat="46.56074" lon="6.53575">
        <ele>438.60000610352</ele>
        <time>2015-09-04T10:16:26.000Z</time>
      </trkpt>
      <trkpt lat="46.5607" lon="6.5355">
        <ele>438.20001220703</ele>
        <time>2015-09-04T10:16:34.000Z</time>
      </trkpt>
      <trkpt lat="46.56069" lon="6.53546">
        <ele>438.20001220703</ele>
        <time>2015-09-04T10:16:35.000Z</time>
      </trkpt>
      <trkpt lat="46.56065" lon="6.53531">
        <ele>438.20001220703</ele>
        <time>2015-09-04T10:16:38.000Z</time>
      </trkpt>
      <trkpt lat="46.5606" lon="6.53515">
        <ele>438</ele>
        <time>2015-09-04T10:16:41.000Z</time>
      </trkpt>
      <trkpt lat="46.5605" lon="6.5349">
        <ele>437.79998779297</ele>
        <time>2015-09-04T10:16:47.000Z</time>
      </trkpt>
      <trkpt lat="46.56036" lon="6.53471">
        <ele>437.20001220703</ele>
        <time>2015-09-04T10:16:53.000Z</time>
      </trkpt>
      <trkpt lat="46.56028" lon="6.53459">
        <ele>437.20001220703</ele>
        <time>2015-09-04T10:16:57.000Z</time>
      </trkpt>
      <trkpt lat="46.56022" lon="6.53432">
        <ele>436.79998779297</ele>
        <time>2015-09-04T10:17:05.000Z</time>
      </trkpt>
      <trkpt lat="46.5602" lon="6.53425">
        <ele>436.60000610352</ele>
        <time>2015-09-04T10:17:07.000Z</time>
      </trkpt>
      <trkpt lat="46.56009" lon="6.53403">
        <ele>435.60000610352</ele>
        <time>2015-09-04T10:17:14.000Z</time>
      </trkpt>
      <trkpt lat="46.56007" lon="6.53398">
        <ele>435.39999389648</ele>
        <time>2015-09-04T10:17:16.000Z</time>
      </trkpt>
      <trkpt lat="46.56006" lon="6.53396">
        <ele>435</ele>
        <time>2015-09-04T10:17:18.000Z</time>
      </trkpt>
      <trkpt lat="46.55996" lon="6.53402">
        <ele>434.60000610352</ele>
        <time>2015-09-04T10:17:26.000Z</time>
      </trkpt>
      <trkpt lat="46.55992" lon="6.53409">
        <ele>434.20001220703</ele>
        <time>2015-09-04T10:17:29.000Z</time>
      </trkpt>
      <trkpt lat="46.55986" lon="6.53414">
        <ele>433.39999389648</ele>
        <time>2015-09-04T10:17:32.000Z</time>
      </trkpt>
      <trkpt lat="46.55978" lon="6.53425">
        <ele>432</ele>
        <time>2015-09-04T10:17:36.000Z</time>
      </trkpt>
      <trkpt lat="46.55974" lon="6.53432">
        <ele>431</ele>
        <time>2015-09-04T10:17:38.000Z</time>
      </trkpt>
      <trkpt lat="46.55969" lon="6.53433">
        <ele>430.60000610352</ele>
        <time>2015-09-04T10:17:40.000Z</time>
      </trkpt>
      <trkpt lat="46.55963" lon="6.53427">
        <ele>429.60000610352</ele>
        <time>2015-09-04T10:17:43.000Z</time>
      </trkpt>
      <trkpt lat="46.55957" lon="6.53421">
        <ele>428.60000610352</ele>
        <time>2015-09-04T10:17:46.000Z</time>
      </trkpt>
      <trkpt lat="46.55954" lon="6.5342">
        <ele>428.20001220703</ele>
        <time>2015-09-04T10:17:47.000Z</time>
      </trkpt>
      <trkpt lat="46.55947" lon="6.53412">
        <ele>426.79998779297</ele>
        <time>2015-09-04T10:17:50.000Z</time>
      </trkpt>
      <trkpt lat="46.5594" lon="6.53403">
        <ele>425.60000610352</ele>
        <time>2015-09-04T10:17:54.000Z</time>
      </trkpt>
      <trkpt lat="46.55938" lon="6.53404">
        <ele>425.20001220703</ele>
        <time>2015-09-04T10:17:55.000Z</time>
      </trkpt>
      <trkpt lat="46.55933" lon="6.5341">
        <ele>424.60000610352</ele>
        <time>2015-09-04T10:17:57.000Z</time>
      </trkpt>
      <trkpt lat="46.55925" lon="6.53423">
        <ele>423.60000610352</ele>
        <time>2015-09-04T10:18:01.000Z</time>
      </trkpt>
      <trkpt lat="46.55919" lon="6.53432">
        <ele>423.20001220703</ele>
        <time>2015-09-04T10:18:06.000Z</time>
      </trkpt>
      <trkpt lat="46.55918" lon="6.53435">
        <ele>423.20001220703</ele>
        <time>2015-09-04T10:18:08.000Z</time>
      </trkpt>
      <trkpt lat="46.55918" lon="6.53436">
        <ele>423.20001220703</ele>
        <time>2015-09-04T10:18:09.000Z</time>
      </trkpt>
      <trkpt lat="46.55917" lon="6.53438">
        <ele>423</ele>
        <time>2015-09-04T10:18:11.000Z</time>
      </trkpt>
      <trkpt lat="46.55916" lon="6.5344">
        <ele>423.39999389648</ele>
        <time>2015-09-04T10:18:12.000Z</time>
      </trkpt>
      <trkpt lat="46.55915" lon="6.53444">
        <ele>424.20001220703</ele>
        <time>2015-09-04T10:18:14.000Z</time>
      </trkpt>
      <trkpt lat="46.55915" lon="6.53445">
        <ele>424.79998779297</ele>
        <time>2015-09-04T10:18:15.000Z</time>
      </trkpt>
      <trkpt lat="46.55914" lon="6.53448">
        <ele>425.20001220703</ele>
        <time>2015-09-04T10:18:16.000Z</time>
      </trkpt>
      <trkpt lat="46.5591" lon="6.53458">
        <ele>426.20001220703</ele>
        <time>2015-09-04T10:18:20.000Z</time>
      </trkpt>
      <trkpt lat="46.55906" lon="6.53473">
        <ele>427.39999389648</ele>
        <time>2015-09-04T10:18:25.000Z</time>
      </trkpt>
      <trkpt lat="46.55903" lon="6.53487">
        <ele>428.60000610352</ele>
        <time>2015-09-04T10:18:29.000Z</time>
      </trkpt>
      <trkpt lat="46.55901" lon="6.53501">
        <ele>429.60000610352</ele>
        <time>2015-09-04T10:18:33.000Z</time>
      </trkpt>
      <trkpt lat="46.55898" lon="6.5351">
        <ele>431</ele>
        <time>2015-09-04T10:18:37.000Z</time>
      </trkpt>
      <trkpt lat="46.55892" lon="6.53522">
        <ele>432.39999389648</ele>
        <time>2015-09-04T10:18:42.000Z</time>
      </trkpt>
      <trkpt lat="46.55887" lon="6.53527">
        <ele>433</ele>
        <time>2015-09-04T10:18:45.000Z</time>
      </trkpt>
      <trkpt lat="46.55871" lon="6.53546">
        <ele>433</ele>
        <time>2015-09-04T10:18:53.000Z</time>
      </trkpt>
      <trkpt lat="46.55853" lon="6.53556">
        <ele>432.39999389648</ele>
        <time>2015-09-04T10:18:59.000Z</time>
      </trkpt>
      <trkpt lat="46.5585" lon="6.53556">
        <ele>432.39999389648</ele>
        <time>2015-09-04T10:19:00.000Z</time>
      </trkpt>
      <trkpt lat="46.55839" lon="6.53551">
        <ele>432.20001220703</ele>
        <time>2015-09-04T10:19:04.000Z</time>
      </trkpt>
      <trkpt lat="46.55823" lon="6.53539">
        <ele>431.60000610352</ele>
        <time>2015-09-04T10:19:11.000Z</time>
      </trkpt>
      <trkpt lat="46.55821" lon="6.53537">
        <ele>431.60000610352</ele>
        <time>2015-09-04T10:19:12.000Z</time>
      </trkpt>
      <trkpt lat="46.55813" lon="6.53534">
        <ele>431.20001220703</ele>
        <time>2015-09-04T10:19:15.000Z</time>
      </trkpt>
      <trkpt lat="46.55802" lon="6.53535">
        <ele>430.39999389648</ele>
        <time>2015-09-04T10:19:18.000Z</time>
      </trkpt>
      <trkpt lat="46.55796" lon="6.53535">
        <ele>429.79998779297</ele>
        <time>2015-09-04T10:19:20.000Z</time>
      </trkpt>
      <trkpt lat="46.55788" lon="6.53531">
        <ele>428.39999389648</ele>
        <time>2015-09-04T10:19:23.000Z</time>
      </trkpt>
      <trkpt lat="46.55783" lon="6.53529">
        <ele>427.60000610352</ele>
        <time>2015-09-04T10:19:25.000Z</time>
      </trkpt>
      <trkpt lat="46.5578" lon="6.53529">
        <ele>427</ele>
        <time>2015-09-04T10:19:26.000Z</time>
      </trkpt>
      <trkpt lat="46.55778" lon="6.5353">
        <ele>426.60000610352</ele>
        <time>2015-09-04T10:19:27.000Z</time>
      </trkpt>
      <trkpt lat="46.55774" lon="6.53538">
        <ele>425</ele>
        <time>2015-09-04T10:19:30.000Z</time>
      </trkpt>
      <trkpt lat="46.55774" lon="6.53547">
        <ele>423.60000610352</ele>
        <time>2015-09-04T10:19:34.000Z</time>
      </trkpt>
      <trkpt lat="46.55773" lon="6.53559">
        <ele>422.60000610352</ele>
        <time>2015-09-04T10:19:37.000Z</time>
      </trkpt>
      <trkpt lat="46.55772" lon="6.53567">
        <ele>422</ele>
        <time>2015-09-04T10:19:39.000Z</time>
      </trkpt>
      <trkpt lat="46.5577" lon="6.53584">
        <ele>421.60000610352</ele>
        <time>2015-09-04T10:19:42.000Z</time>
      </trkpt>
      <trkpt lat="46.55771" lon="6.53591">
        <ele>421</ele>
        <time>2015-09-04T10:19:44.000Z</time>
      </trkpt>
      <trkpt lat="46.55773" lon="6.53602">
        <ele>420.20001220703</ele>
        <time>2015-09-04T10:19:47.000Z</time>
      </trkpt>
      <trkpt lat="46.55783" lon="6.53624">
        <ele>417</ele>
        <time>2015-09-04T10:19:54.000Z</time>
      </trkpt>
      <trkpt lat="46.55792" lon="6.53648">
        <ele>416.79998779297</ele>
        <time>2015-09-04T10:20:00.000Z</time>
      </trkpt>
      <trkpt lat="46.55794" lon="6.53665">
        <ele>416.60000610352</ele>
        <time>2015-09-04T10:20:05.000Z</time>
      </trkpt>
      <trkpt lat="46.55792" lon="6.53692">
        <ele>416.79998779297</ele>
        <time>2015-09-04T10:20:13.000Z</time>
      </trkpt>
      <trkpt lat="46.55791" lon="6.53716">
        <ele>417</ele>
        <time>2015-09-04T10:20:21.000Z</time>
      </trkpt>
      <trkpt lat="46.5579" lon="6.53721">
        <ele>417</ele>
        <time>2015-09-04T10:20:23.000Z</time>
      </trkpt>
      <trkpt lat="46.55786" lon="6.53723">
        <ele>417.20001220703</ele>
        <time>2015-09-04T10:20:25.000Z</time>
      </trkpt>
      <trkpt lat="46.55784" lon="6.53723">
        <ele>417.39999389648</ele>
        <time>2015-09-04T10:20:26.000Z</time>
      </trkpt>
      <trkpt lat="46.55781" lon="6.53722">
        <ele>417.60000610352</ele>
        <time>2015-09-04T10:20:28.000Z</time>
      </trkpt>
      <trkpt lat="46.55775" lon="6.53723">
        <ele>417.79998779297</ele>
        <time>2015-09-04T10:20:31.000Z</time>
      </trkpt>
      <trkpt lat="46.5577" lon="6.53722">
        <ele>418</ele>
        <time>2015-09-04T10:20:33.000Z</time>
      </trkpt>
      <trkpt lat="46.55767" lon="6.53722">
        <ele>418.79998779297</ele>
        <time>2015-09-04T10:20:35.000Z</time>
      </trkpt>
      <trkpt lat="46.55762" lon="6.53722">
        <ele>419.39999389648</ele>
        <time>2015-09-04T10:20:37.000Z</time>
      </trkpt>
      <trkpt lat="46.55758" lon="6.53721">
        <ele>421</ele>
        <time>2015-09-04T10:20:40.000Z</time>
      </trkpt>
      <trkpt lat="46.55754" lon="6.53721">
        <ele>422.60000610352</ele>
        <time>2015-09-04T10:20:43.000Z</time>
      </trkpt>
      <trkpt lat="46.55747" lon="6.5372">
        <ele>424</ele>
        <time>2015-09-04T10:20:46.000Z</time>
      </trkpt>
      <trkpt lat="46.55727" lon="6.53716">
        <ele>426.60000610352</ele>
        <time>2015-09-04T10:20:55.000Z</time>
      </trkpt>
      <trkpt lat="46.55721" lon="6.53712">
        <ele>426.39999389648</ele>
        <time>2015-09-04T10:20:58.000Z</time>
      </trkpt>
      <trkpt lat="46.55702" lon="6.53705">
        <ele>426.60000610352</ele>
        <time>2015-09-04T10:21:07.000Z</time>
      </trkpt>
      <trkpt lat="46.557" lon="6.53705">
        <ele>426.39999389648</ele>
        <time>2015-09-04T10:21:08.000Z</time>
      </trkpt>
      <trkpt lat="46.55698" lon="6.53705">
        <ele>426.60000610352</ele>
        <time>2015-09-04T10:21:09.000Z</time>
      </trkpt>
      <trkpt lat="46.55692" lon="6.53708">
        <ele>427.20001220703</ele>
        <time>2015-09-04T10:21:12.000Z</time>
      </trkpt>
      <trkpt lat="46.55684" lon="6.53725">
        <ele>428.79998779297</ele>
        <time>2015-09-04T10:21:20.000Z</time>
      </trkpt>
      <trkpt lat="46.55682" lon="6.53731">
        <ele>429</ele>
        <time>2015-09-04T10:21:22.000Z</time>
      </trkpt>
      <trkpt lat="46.55678" lon="6.53737">
        <ele>429.60000610352</ele>
        <time>2015-09-04T10:21:26.000Z</time>
      </trkpt>
      <trkpt lat="46.55676" lon="6.53738">
        <ele>429.60000610352</ele>
        <time>2015-09-04T10:21:27.000Z</time>
      </trkpt>
      <trkpt lat="46.55669" lon="6.5374">
        <ele>430.20001220703</ele>
        <time>2015-09-04T10:21:30.000Z</time>
      </trkpt>
      <trkpt lat="46.55655" lon="6.53742">
        <ele>432.39999389648</ele>
        <time>2015-09-04T10:21:38.000Z</time>
      </trkpt>
      <trkpt lat="46.55637" lon="6.53729">
        <ele>432.60000610352</ele>
        <time>2015-09-04T10:21:46.000Z</time>
      </trkpt>
      <trkpt lat="46.55622" lon="6.53713">
        <ele>432.60000610352</ele>
        <time>2015-09-04T10:21:53.000Z</time>
      </trkpt>
      <trkpt lat="46.55605" lon="6.53702">
        <ele>432.20001220703</ele>
        <time>2015-09-04T10:22:01.000Z</time>
      </trkpt>
      <trkpt lat="46.55598" lon="6.53699">
        <ele>432.20001220703</ele>
        <time>2015-09-04T10:22:04.000Z</time>
      </trkpt>
      <trkpt lat="46.55591" lon="6.53702">
        <ele>431.60000610352</ele>
        <time>2015-09-04T10:22:08.000Z</time>
      </trkpt>
      <trkpt lat="46.55588" lon="6.53702">
        <ele>431.39999389648</ele>
        <time>2015-09-04T10:22:09.000Z</time>
      </trkpt>
      <trkpt lat="46.55574" lon="6.53701">
        <ele>430.39999389648</ele>
        <time>2015-09-04T10:22:16.000Z</time>
      </trkpt>
      <trkpt lat="46.55557" lon="6.53703">
        <ele>429.39999389648</ele>
        <time>2015-09-04T10:22:23.000Z</time>
      </trkpt>
      <trkpt lat="46.55537" lon="6.53709">
        <ele>428.20001220703</ele>
        <time>2015-09-04T10:22:31.000Z</time>
      </trkpt>
      <trkpt lat="46.55526" lon="6.53715">
        <ele>428</ele>
        <time>2015-09-04T10:22:35.000Z</time>
      </trkpt>
      <trkpt lat="46.55509" lon="6.53726">
        <ele>427.20001220703</ele>
        <time>2015-09-04T10:22:42.000Z</time>
      </trkpt>
      <trkpt lat="46.55505" lon="6.53735">
        <ele>427.20001220703</ele>
        <time>2015-09-04T10:22:44.000Z</time>
      </trkpt>
      <trkpt lat="46.55499" lon="6.53764">
        <ele>426.79998779297</ele>
        <time>2015-09-04T10:22:50.000Z</time>
      </trkpt>
      <trkpt lat="46.55509" lon="6.53787">
        <ele>427.39999389648</ele>
        <time>2015-09-04T10:22:59.000Z</time>
      </trkpt>
      <trkpt lat="46.5551" lon="6.53791">
        <ele>427.79998779297</ele>
        <time>2015-09-04T10:23:01.000Z</time>
      </trkpt>
      <trkpt lat="46.55511" lon="6.53798">
        <ele>428.60000610352</ele>
        <time>2015-09-04T10:23:05.000Z</time>
      </trkpt>
      <trkpt lat="46.55524" lon="6.53816">
        <ele>429.79998779297</ele>
        <time>2015-09-04T10:23:12.000Z</time>
      </trkpt>
      <trkpt lat="46.55538" lon="6.53835">
        <ele>430.79998779297</ele>
        <time>2015-09-04T10:23:18.000Z</time>
      </trkpt>
      <trkpt lat="46.55545" lon="6.53844">
        <ele>431</ele>
        <time>2015-09-04T10:23:21.000Z</time>
      </trkpt>
      <trkpt lat="46.55562" lon="6.53863">
        <ele>431.60000610352</ele>
        <time>2015-09-04T10:23:27.000Z</time>
      </trkpt>
      <trkpt lat="46.55564" lon="6.53866">
        <ele>431.79998779297</ele>
        <time>2015-09-04T10:23:28.000Z</time>
      </trkpt>
      <trkpt lat="46.55571" lon="6.5388">
        <ele>432.60000610352</ele>
        <time>2015-09-04T10:23:33.000Z</time>
      </trkpt>
      <trkpt lat="46.55569" lon="6.53883">
        <ele>433</ele>
        <time>2015-09-04T10:23:35.000Z</time>
      </trkpt>
      <trkpt lat="46.55565" lon="6.53885">
        <ele>433.20001220703</ele>
        <time>2015-09-04T10:23:37.000Z</time>
      </trkpt>
      <trkpt lat="46.55562" lon="6.53885">
        <ele>433.39999389648</ele>
        <time>2015-09-04T10:23:38.000Z</time>
      </trkpt>
      <trkpt lat="46.55545" lon="6.53898">
        <ele>433.60000610352</ele>
        <time>2015-09-04T10:23:45.000Z</time>
      </trkpt>
      <trkpt lat="46.55541" lon="6.53904">
        <ele>433.39999389648</ele>
        <time>2015-09-04T10:23:48.000Z</time>
      </trkpt>
      <trkpt lat="46.55538" lon="6.53909">
        <ele>433.20001220703</ele>
        <time>2015-09-04T10:23:51.000Z</time>
      </trkpt>
      <trkpt lat="46.55536" lon="6.53926">
        <ele>432.60000610352</ele>
        <time>2015-09-04T10:23:56.000Z</time>
      </trkpt>
      <trkpt lat="46.55538" lon="6.53952">
        <ele>432.39999389648</ele>
        <time>2015-09-04T10:24:04.000Z</time>
      </trkpt>
      <trkpt lat="46.55541" lon="6.53982">
        <ele>432.79998779297</ele>
        <time>2015-09-04T10:24:13.000Z</time>
      </trkpt>
      <trkpt lat="46.55547" lon="6.54007">
        <ele>433</ele>
        <time>2015-09-04T10:24:22.000Z</time>
      </trkpt>
      <trkpt lat="46.55551" lon="6.5402">
        <ele>433.60000610352</ele>
        <time>2015-09-04T10:24:28.000Z</time>
      </trkpt>
      <trkpt lat="46.55551" lon="6.54023">
        <ele>433.79998779297</ele>
        <time>2015-09-04T10:24:29.000Z</time>
      </trkpt>
      <trkpt lat="46.55552" lon="6.54033">
        <ele>434.39999389648</ele>
        <time>2015-09-04T10:24:33.000Z</time>
      </trkpt>
      <trkpt lat="46.55554" lon="6.54039">
        <ele>435</ele>
        <time>2015-09-04T10:24:36.000Z</time>
      </trkpt>
      <trkpt lat="46.55555" lon="6.54041">
        <ele>435</ele>
        <time>2015-09-04T10:24:37.000Z</time>
      </trkpt>
      <trkpt lat="46.55563" lon="6.5405">
        <ele>435.39999389648</ele>
        <time>2015-09-04T10:24:41.000Z</time>
      </trkpt>
      <trkpt lat="46.55574" lon="6.54071">
        <ele>437</ele>
        <time>2015-09-04T10:24:47.000Z</time>
      </trkpt>
      <trkpt lat="46.55574" lon="6.54074">
        <ele>437.20001220703</ele>
        <time>2015-09-04T10:24:48.000Z</time>
      </trkpt>
      <trkpt lat="46.55585" lon="6.54099">
        <ele>438.39999389648</ele>
        <time>2015-09-04T10:24:55.000Z</time>
      </trkpt>
      <trkpt lat="46.55596" lon="6.54118">
        <ele>439.39999389648</ele>
        <time>2015-09-04T10:25:02.000Z</time>
      </trkpt>
      <trkpt lat="46.55606" lon="6.54137">
        <ele>440.60000610352</ele>
        <time>2015-09-04T10:25:09.000Z</time>
      </trkpt>
      <trkpt lat="46.55617" lon="6.54153">
        <ele>441.79998779297</ele>
        <time>2015-09-04T10:25:15.000Z</time>
      </trkpt>
      <trkpt lat="46.55624" lon="6.54167">
        <ele>442.79998779297</ele>
        <time>2015-09-04T10:25:21.000Z</time>
      </trkpt>
      <trkpt lat="46.55626" lon="6.54171">
        <ele>443</ele>
        <time>2015-09-04T10:25:23.000Z</time>
      </trkpt>
      <trkpt lat="46.55633" lon="6.54179">
        <ele>443.79998779297</ele>
        <time>2015-09-04T10:25:27.000Z</time>
      </trkpt>
      <trkpt lat="46.55637" lon="6.54183">
        <ele>444.39999389648</ele>
        <time>2015-09-04T10:25:30.000Z</time>
      </trkpt>
      <trkpt lat="46.55655" lon="6.5418">
        <ele>445</ele>
        <time>2015-09-04T10:25:42.000Z</time>
      </trkpt>
      <trkpt lat="46.55666" lon="6.54181">
        <ele>445.20001220703</ele>
        <time>2015-09-04T10:25:47.000Z</time>
      </trkpt>
      <trkpt lat="46.55676" lon="6.54183">
        <ele>444.39999389648</ele>
        <time>2015-09-04T10:25:52.000Z</time>
      </trkpt>
      <trkpt lat="46.55695" lon="6.54189">
        <ele>444</ele>
        <time>2015-09-04T10:25:59.000Z</time>
      </trkpt>
      <trkpt lat="46.55715" lon="6.54183">
        <ele>444.20001220703</ele>
        <time>2015-09-04T10:26:07.000Z</time>
      </trkpt>
      <trkpt lat="46.55733" lon="6.54177">
        <ele>444.20001220703</ele>
        <time>2015-09-04T10:26:15.000Z</time>
      </trkpt>
      <trkpt lat="46.55735" lon="6.54177">
        <ele>444.39999389648</ele>
        <time>2015-09-04T10:26:16.000Z</time>
      </trkpt>
      <trkpt lat="46.55745" lon="6.54169">
        <ele>443.79998779297</ele>
        <time>2015-09-04T10:26:22.000Z</time>
      </trkpt>
      <trkpt lat="46.55745" lon="6.54157">
        <ele>442.79998779297</ele>
        <time>2015-09-04T10:26:27.000Z</time>
      </trkpt>
      <trkpt lat="46.55745" lon="6.54144">
        <ele>442.20001220703</ele>
        <time>2015-09-04T10:26:32.000Z</time>
      </trkpt>
      <trkpt lat="46.55747" lon="6.54124">
        <ele>441.20001220703</ele>
        <time>2015-09-04T10:26:41.000Z</time>
      </trkpt>
      <trkpt lat="46.55752" lon="6.54118">
        <ele>440.60000610352</ele>
        <time>2015-09-04T10:26:46.000Z</time>
      </trkpt>
      <trkpt lat="46.55756" lon="6.54106">
        <ele>440.20001220703</ele>
        <time>2015-09-04T10:26:50.000Z</time>
      </trkpt>
      <trkpt lat="46.55759" lon="6.54077">
        <ele>439.39999389648</ele>
        <time>2015-09-04T10:26:58.000Z</time>
      </trkpt>
      <trkpt lat="46.55759" lon="6.5405">
        <ele>438.20001220703</ele>
        <time>2015-09-04T10:27:07.000Z</time>
      </trkpt>
      <trkpt lat="46.55758" lon="6.54036">
        <ele>438.20001220703</ele>
        <time>2015-09-04T10:27:12.000Z</time>
      </trkpt>
      <trkpt lat="46.55766" lon="6.54022">
        <ele>438</ele>
        <time>2015-09-04T10:27:18.000Z</time>
      </trkpt>
      <trkpt lat="46.55772" lon="6.54019">
        <ele>437.79998779297</ele>
        <time>2015-09-04T10:27:22.000Z</time>
      </trkpt>
      <trkpt lat="46.5578" lon="6.54017">
        <ele>436.79998779297</ele>
        <time>2015-09-04T10:27:26.000Z</time>
      </trkpt>
      <trkpt lat="46.55784" lon="6.54017">
        <ele>436</ele>
        <time>2015-09-04T10:27:29.000Z</time>
      </trkpt>
      <trkpt lat="46.55786" lon="6.54017">
        <ele>435.39999389648</ele>
        <time>2015-09-04T10:27:31.000Z</time>
      </trkpt>
      <trkpt lat="46.55788" lon="6.54019">
        <ele>434.79998779297</ele>
        <time>2015-09-04T10:27:33.000Z</time>
      </trkpt>
      <trkpt lat="46.55802" lon="6.54043">
        <ele>432.79998779297</ele>
        <time>2015-09-04T10:27:45.000Z</time>
      </trkpt>
      <trkpt lat="46.55807" lon="6.54048">
        <ele>432.60000610352</ele>
        <time>2015-09-04T10:27:49.000Z</time>
      </trkpt>
      <trkpt lat="46.55814" lon="6.54049">
        <ele>432.39999389648</ele>
        <time>2015-09-04T10:27:53.000Z</time>
      </trkpt>
      <trkpt lat="46.55822" lon="6.5405">
        <ele>433</ele>
        <time>2015-09-04T10:27:58.000Z</time>
      </trkpt>
      <trkpt lat="46.55828" lon="6.54052">
        <ele>433.39999389648</ele>
        <time>2015-09-04T10:28:01.000Z</time>
      </trkpt>
      <trkpt lat="46.5583" lon="6.54052">
        <ele>433.60000610352</ele>
        <time>2015-09-04T10:28:02.000Z</time>
      </trkpt>
      <trkpt lat="46.55835" lon="6.54054">
        <ele>433.79998779297</ele>
        <time>2015-09-04T10:28:05.000Z</time>
      </trkpt>
      <trkpt lat="46.55839" lon="6.54062">
        <ele>434.79998779297</ele>
        <time>2015-09-04T10:28:09.000Z</time>
      </trkpt>
      <trkpt lat="46.5584" lon="6.54066">
        <ele>435.20001220703</ele>
        <time>2015-09-04T10:28:11.000Z</time>
      </trkpt>
      <trkpt lat="46.55844" lon="6.54077">
        <ele>436.20001220703</ele>
        <time>2015-09-04T10:28:15.000Z</time>
      </trkpt>
      <trkpt lat="46.55848" lon="6.54093">
        <ele>437.60000610352</ele>
        <time>2015-09-04T10:28:21.000Z</time>
      </trkpt>
      <trkpt lat="46.55852" lon="6.5411">
        <ele>438.79998779297</ele>
        <time>2015-09-04T10:28:27.000Z</time>
      </trkpt>
      <trkpt lat="46.55856" lon="6.54131">
        <ele>440</ele>
        <time>2015-09-04T10:28:34.000Z</time>
      </trkpt>
      <trkpt lat="46.55859" lon="6.54155">
        <ele>441.20001220703</ele>
        <time>2015-09-04T10:28:43.000Z</time>
      </trkpt>
      <trkpt lat="46.5586" lon="6.54183">
        <ele>442</ele>
        <time>2015-09-04T10:28:52.000Z</time>
      </trkpt>
      <trkpt lat="46.5586" lon="6.54188">
        <ele>442.20001220703</ele>
        <time>2015-09-04T10:28:54.000Z</time>
      </trkpt>
      <trkpt lat="46.55861" lon="6.54209">
        <ele>443.20001220703</ele>
        <time>2015-09-04T10:29:01.000Z</time>
      </trkpt>
      <trkpt lat="46.55864" lon="6.54225">
        <ele>443.60000610352</ele>
        <time>2015-09-04T10:29:06.000Z</time>
      </trkpt>
      <trkpt lat="46.55867" lon="6.54249">
        <ele>444.20001220703</ele>
        <time>2015-09-04T10:29:14.000Z</time>
      </trkpt>
      <trkpt lat="46.55872" lon="6.54265">
        <ele>445.20001220703</ele>
        <time>2015-09-04T10:29:20.000Z</time>
      </trkpt>
      <trkpt lat="46.55878" lon="6.54286">
        <ele>446.39999389648</ele>
        <time>2015-09-04T10:29:27.000Z</time>
      </trkpt>
      <trkpt lat="46.55882" lon="6.54299">
        <ele>447</ele>
        <time>2015-09-04T10:29:31.000Z</time>
      </trkpt>
      <trkpt lat="46.55883" lon="6.54307">
        <ele>447.39999389648</ele>
        <time>2015-09-04T10:29:33.000Z</time>
      </trkpt>
      <trkpt lat="46.55889" lon="6.54333">
        <ele>448.39999389648</ele>
        <time>2015-09-04T10:29:40.000Z</time>
      </trkpt>
      <trkpt lat="46.5589" lon="6.5434">
        <ele>448.79998779297</ele>
        <time>2015-09-04T10:29:42.000Z</time>
      </trkpt>
      <trkpt lat="46.55892" lon="6.54368">
        <ele>449.60000610352</ele>
        <time>2015-09-04T10:29:51.000Z</time>
      </trkpt>
      <trkpt lat="46.55894" lon="6.54376">
        <ele>449.79998779297</ele>
        <time>2015-09-04T10:29:54.000Z</time>
      </trkpt>
      <trkpt lat="46.55896" lon="6.54397">
        <ele>450.79998779297</ele>
        <time>2015-09-04T10:30:03.000Z</time>
      </trkpt>
      <trkpt lat="46.55901" lon="6.54425">
        <ele>451.60000610352</ele>
        <time>2015-09-04T10:30:11.000Z</time>
      </trkpt>
      <trkpt lat="46.55902" lon="6.54437">
        <ele>452</ele>
        <time>2015-09-04T10:30:14.000Z</time>
      </trkpt>
      <trkpt lat="46.55903" lon="6.54444">
        <ele>452.20001220703</ele>
        <time>2015-09-04T10:30:16.000Z</time>
      </trkpt>
      <trkpt lat="46.55905" lon="6.54459">
        <ele>452.60000610352</ele>
        <time>2015-09-04T10:30:20.000Z</time>
      </trkpt>
      <trkpt lat="46.55911" lon="6.5448">
        <ele>453.60000610352</ele>
        <time>2015-09-04T10:30:26.000Z</time>
      </trkpt>
      <trkpt lat="46.5592" lon="6.54506">
        <ele>454.60000610352</ele>
        <time>2015-09-04T10:30:33.000Z</time>
      </trkpt>
      <trkpt lat="46.55921" lon="6.5451">
        <ele>455</ele>
        <time>2015-09-04T10:30:34.000Z</time>
      </trkpt>
      <trkpt lat="46.55931" lon="6.54534">
        <ele>455.79998779297</ele>
        <time>2015-09-04T10:30:41.000Z</time>
      </trkpt>
      <trkpt lat="46.55933" lon="6.54561">
        <ele>456</ele>
        <time>2015-09-04T10:30:49.000Z</time>
      </trkpt>
      <trkpt lat="46.55927" lon="6.54589">
        <ele>455.79998779297</ele>
        <time>2015-09-04T10:30:56.000Z</time>
      </trkpt>
      <trkpt lat="46.55918" lon="6.54613">
        <ele>455.79998779297</ele>
        <time>2015-09-04T10:31:02.000Z</time>
      </trkpt>
      <trkpt lat="46.5591" lon="6.5464">
        <ele>456</ele>
        <time>2015-09-04T10:31:10.000Z</time>
      </trkpt>
      <trkpt lat="46.55904" lon="6.54667">
        <ele>456</ele>
        <time>2015-09-04T10:31:18.000Z</time>
      </trkpt>
      <trkpt lat="46.55902" lon="6.54684">
        <ele>456</ele>
        <time>2015-09-04T10:31:23.000Z</time>
      </trkpt>
      <trkpt lat="46.55898" lon="6.54713">
        <ele>456.79998779297</ele>
        <time>2015-09-04T10:31:31.000Z</time>
      </trkpt>
      <trkpt lat="46.55898" lon="6.54724">
        <ele>457</ele>
        <time>2015-09-04T10:31:34.000Z</time>
      </trkpt>
      <trkpt lat="46.55895" lon="6.54752">
        <ele>458</ele>
        <time>2015-09-04T10:31:42.000Z</time>
      </trkpt>
      <trkpt lat="46.55886" lon="6.54776">
        <ele>458.20001220703</ele>
        <time>2015-09-04T10:31:49.000Z</time>
      </trkpt>
      <trkpt lat="46.55883" lon="6.54786">
        <ele>458.39999389648</ele>
        <time>2015-09-04T10:31:52.000Z</time>
      </trkpt>
      <trkpt lat="46.55876" lon="6.54811">
        <ele>458.79998779297</ele>
        <time>2015-09-04T10:31:59.000Z</time>
      </trkpt>
      <trkpt lat="46.55866" lon="6.54834">
        <ele>459</ele>
        <time>2015-09-04T10:32:06.000Z</time>
      </trkpt>
      <trkpt lat="46.55857" lon="6.54861">
        <ele>459.20001220703</ele>
        <time>2015-09-04T10:32:13.000Z</time>
      </trkpt>
      <trkpt lat="46.55848" lon="6.54887">
        <ele>459.20001220703</ele>
        <time>2015-09-04T10:32:20.000Z</time>
      </trkpt>
      <trkpt lat="46.55841" lon="6.54912">
        <ele>459.20001220703</ele>
        <time>2015-09-04T10:32:27.000Z</time>
      </trkpt>
      <trkpt lat="46.55841" lon="6.5492">
        <ele>459.20001220703</ele>
        <time>2015-09-04T10:32:29.000Z</time>
      </trkpt>
      <trkpt lat="46.55842" lon="6.54923">
        <ele>459.39999389648</ele>
        <time>2015-09-04T10:32:30.000Z</time>
      </trkpt>
      <trkpt lat="46.55858" lon="6.54938">
        <ele>460</ele>
        <time>2015-09-04T10:32:37.000Z</time>
      </trkpt>
      <trkpt lat="46.55874" lon="6.54952">
        <ele>461</ele>
        <time>2015-09-04T10:32:44.000Z</time>
      </trkpt>
      <trkpt lat="46.55893" lon="6.54964">
        <ele>461.39999389648</ele>
        <time>2015-09-04T10:32:51.000Z</time>
      </trkpt>
      <trkpt lat="46.55913" lon="6.54966">
        <ele>462.39999389648</ele>
        <time>2015-09-04T10:32:58.000Z</time>
      </trkpt>
      <trkpt lat="46.55919" lon="6.54965">
        <ele>462.60000610352</ele>
        <time>2015-09-04T10:33:00.000Z</time>
      </trkpt>
      <trkpt lat="46.55934" lon="6.54958">
        <ele>463.20001220703</ele>
        <time>2015-09-04T10:33:06.000Z</time>
      </trkpt>
      <trkpt lat="46.55952" lon="6.54947">
        <ele>464.39999389648</ele>
        <time>2015-09-04T10:33:13.000Z</time>
      </trkpt>
      <trkpt lat="46.55954" lon="6.54945">
        <ele>464.39999389648</ele>
        <time>2015-09-04T10:33:14.000Z</time>
      </trkpt>
      <trkpt lat="46.55968" lon="6.54935">
        <ele>465.39999389648</ele>
        <time>2015-09-04T10:33:20.000Z</time>
      </trkpt>
      <trkpt lat="46.55984" lon="6.54925">
        <ele>466.39999389648</ele>
        <time>2015-09-04T10:33:27.000Z</time>
      </trkpt>
      <trkpt lat="46.55993" lon="6.54922">
        <ele>466.79998779297</ele>
        <time>2015-09-04T10:33:30.000Z</time>
      </trkpt>
      <trkpt lat="46.56006" lon="6.5492">
        <ele>467.60000610352</ele>
        <time>2015-09-04T10:33:37.000Z</time>
      </trkpt>
      <trkpt lat="46.56025" lon="6.54918">
        <ele>469.20001220703</ele>
        <time>2015-09-04T10:33:49.000Z</time>
      </trkpt>
      <trkpt lat="46.56043" lon="6.54918">
        <ele>470.20001220703</ele>
        <time>2015-09-04T10:34:00.000Z</time>
      </trkpt>
      <trkpt lat="46.56048" lon="6.54917">
        <ele>470.39999389648</ele>
        <time>2015-09-04T10:34:03.000Z</time>
      </trkpt>
      <trkpt lat="46.56051" lon="6.54918">
        <ele>470.39999389648</ele>
        <time>2015-09-04T10:34:05.000Z</time>
      </trkpt>
      <trkpt lat="46.56068" lon="6.54918">
        <ele>471.39999389648</ele>
        <time>2015-09-04T10:34:16.000Z</time>
      </trkpt>
      <trkpt lat="46.56086" lon="6.54918">
        <ele>472.39999389648</ele>
        <time>2015-09-04T10:34:26.000Z</time>
      </trkpt>
      <trkpt lat="46.56092" lon="6.54918">
        <ele>472.60000610352</ele>
        <time>2015-09-04T10:34:28.000Z</time>
      </trkpt>
      <trkpt lat="46.56113" lon="6.54919">
        <ele>473</ele>
        <time>2015-09-04T10:34:35.000Z</time>
      </trkpt>
      <trkpt lat="46.56124" lon="6.5492">
        <ele>473.79998779297</ele>
        <time>2015-09-04T10:34:39.000Z</time>
      </trkpt>
      <trkpt lat="46.56142" lon="6.5492">
        <ele>475.20001220703</ele>
        <time>2015-09-04T10:34:45.000Z</time>
      </trkpt>
      <trkpt lat="46.56161" lon="6.54919">
        <ele>476.20001220703</ele>
        <time>2015-09-04T10:34:51.000Z</time>
      </trkpt>
      <trkpt lat="46.56167" lon="6.54918">
        <ele>476.60000610352</ele>
        <time>2015-09-04T10:34:53.000Z</time>
      </trkpt>
      <trkpt lat="46.56184" lon="6.54917">
        <ele>477.39999389648</ele>
        <time>2015-09-04T10:34:59.000Z</time>
      </trkpt>
      <trkpt lat="46.56202" lon="6.54915">
        <ele>478.60000610352</ele>
        <time>2015-09-04T10:35:05.000Z</time>
      </trkpt>
      <trkpt lat="46.56219" lon="6.54912">
        <ele>479.60000610352</ele>
        <time>2015-09-04T10:35:11.000Z</time>
      </trkpt>
      <trkpt lat="46.56238" lon="6.54909">
        <ele>480.60000610352</ele>
        <time>2015-09-04T10:35:18.000Z</time>
      </trkpt>
      <trkpt lat="46.56241" lon="6.54908">
        <ele>480.79998779297</ele>
        <time>2015-09-04T10:35:19.000Z</time>
      </trkpt>
      <trkpt lat="46.56261" lon="6.54903">
        <ele>481.60000610352</ele>
        <time>2015-09-04T10:35:26.000Z</time>
      </trkpt>
      <trkpt lat="46.56281" lon="6.549">
        <ele>483</ele>
        <time>2015-09-04T10:35:34.000Z</time>
      </trkpt>
      <trkpt lat="46.56286" lon="6.549">
        <ele>483.20001220703</ele>
        <time>2015-09-04T10:35:36.000Z</time>
      </trkpt>
      <trkpt lat="46.56306" lon="6.54895">
        <ele>483.79998779297</ele>
        <time>2015-09-04T10:35:43.000Z</time>
      </trkpt>
      <trkpt lat="46.56324" lon="6.54888">
        <ele>484.20001220703</ele>
        <time>2015-09-04T10:35:50.000Z</time>
      </trkpt>
      <trkpt lat="46.56342" lon="6.54879">
        <ele>484.39999389648</ele>
        <time>2015-09-04T10:35:57.000Z</time>
      </trkpt>
      <trkpt lat="46.56344" lon="6.54878">
        <ele>484.60000610352</ele>
        <time>2015-09-04T10:35:58.000Z</time>
      </trkpt>
      <trkpt lat="46.5636" lon="6.54864">
        <ele>484.60000610352</ele>
        <time>2015-09-04T10:36:05.000Z</time>
      </trkpt>
      <trkpt lat="46.56363" lon="6.54863">
        <ele>484.79998779297</ele>
        <time>2015-09-04T10:36:06.000Z</time>
      </trkpt>
      <trkpt lat="46.56374" lon="6.54857">
        <ele>484.79998779297</ele>
        <time>2015-09-04T10:36:10.000Z</time>
      </trkpt>
      <trkpt lat="46.56384" lon="6.54865">
        <ele>484.79998779297</ele>
        <time>2015-09-04T10:36:14.000Z</time>
      </trkpt>
      <trkpt lat="46.56385" lon="6.54895">
        <ele>484.79998779297</ele>
        <time>2015-09-04T10:36:21.000Z</time>
      </trkpt>
      <trkpt lat="46.56388" lon="6.54916">
        <ele>484.79998779297</ele>
        <time>2015-09-04T10:36:26.000Z</time>
      </trkpt>
      <trkpt lat="46.56407" lon="6.54919">
        <ele>485.39999389648</ele>
        <time>2015-09-04T10:36:34.000Z</time>
      </trkpt>
      <trkpt lat="46.56419" lon="6.54917">
        <ele>485.60000610352</ele>
        <time>2015-09-04T10:36:39.000Z</time>
      </trkpt>
      <trkpt lat="46.56419" lon="6.54946">
        <ele>485.60000610352</ele>
        <time>2015-09-04T10:36:46.000Z</time>
      </trkpt>
      <trkpt lat="46.5642" lon="6.54953">
        <ele>485.60000610352</ele>
        <time>2015-09-04T10:36:48.000Z</time>
      </trkpt>
    </trkseg>
  </trk>
</gpx>